createdAt,value
2018-06-05T00:00:29.024Z,25.70
2018-06-05T00:02:57.569Z,25.70
2018-06-05T00:07:54.730Z,25.70
2018-06-05T00:10:23.295Z,25.60
2018-06-05T00:12:51.920Z,25.60
2018-06-05T00:15:20.483Z,25.60
2018-06-05T00:17:49.071Z,25.60
2018-06-05T00:22:46.849Z,25.50
2018-06-05T00:27:43.815Z,25.50
2018-06-05T00:30:12.595Z,25.50
2018-06-05T00:32:41.279Z,25.40
2018-06-05T00:35:09.911Z,25.40
2018-06-05T00:37:38.755Z,25.40
2018-06-05T00:40:07.355Z,25.40
2018-06-05T00:42:35.945Z,25.30
2018-06-05T00:45:05.569Z,25.30
2018-06-05T00:47:34.156Z,25.30
2018-06-05T00:50:02.702Z,25.30
2018-06-05T00:52:31.426Z,25.30
2018-06-05T00:54:59.992Z,25.30
2018-06-05T00:57:28.563Z,25.30
2018-06-05T00:59:57.164Z,25.20
2018-06-05T01:02:25.822Z,25.20
2018-06-05T01:04:54.389Z,25.20
2018-06-05T01:07:22.943Z,25.20
2018-06-05T01:09:52.575Z,25.10
2018-06-05T01:14:49.449Z,25.10
2018-06-05T01:17:18.019Z,25.10
2018-06-05T01:22:14.908Z,25.10
2018-06-05T01:24:44.507Z,25.00
2018-06-05T01:27:14.216Z,25.00
2018-06-05T01:29:42.918Z,24.90
2018-06-05T01:32:11.485Z,24.90
2018-06-05T01:34:40.078Z,24.90
2018-06-05T01:37:08.646Z,24.90
2018-06-05T01:39:37.341Z,24.90
2018-06-05T01:42:06.126Z,24.80
2018-06-05T01:44:35.078Z,24.80
2018-06-05T01:49:38.186Z,24.80
2018-06-05T01:52:06.780Z,24.80
2018-06-05T01:54:35.542Z,24.80
2018-06-05T01:57:04.219Z,24.70
2018-06-05T01:59:32.763Z,24.70
2018-06-05T02:02:01.431Z,24.70
2018-06-05T02:04:29.974Z,24.60
2018-06-05T02:06:58.704Z,24.60
2018-06-05T02:09:27.388Z,24.60
2018-06-05T02:11:55.974Z,24.60
2018-06-05T02:14:24.587Z,24.60
2018-06-05T02:16:53.157Z,24.60
2018-06-05T02:19:23.007Z,24.60
2018-06-05T02:21:51.609Z,24.60
2018-06-05T02:24:20.206Z,24.60
2018-06-05T02:26:48.775Z,24.50
2018-06-05T02:29:17.459Z,24.50
2018-06-05T02:31:46.019Z,24.50
2018-06-05T02:36:44.122Z,24.40
2018-06-05T02:39:13.735Z,24.40
2018-06-05T02:41:42.558Z,24.40
2018-06-05T02:44:11.092Z,24.40
2018-06-05T02:46:39.624Z,24.40
2018-06-05T02:49:08.387Z,24.40
2018-06-05T02:51:37.112Z,24.40
2018-06-05T02:54:05.912Z,24.40
2018-06-05T02:56:34.445Z,24.40
2018-06-05T02:59:03.000Z,24.40
2018-06-05T03:01:31.579Z,24.40
2018-06-05T03:04:01.175Z,24.40
2018-06-05T03:06:29.771Z,24.40
2018-06-05T03:08:58.318Z,24.40
2018-06-05T03:11:26.902Z,24.30
2018-06-05T03:13:55.473Z,24.30
2018-06-05T03:16:24.111Z,24.40
2018-06-05T03:18:52.706Z,24.40
2018-06-05T03:21:21.296Z,24.40
2018-06-05T03:23:49.880Z,24.30
2018-06-05T03:26:18.482Z,24.30
2018-06-05T03:28:47.290Z,24.30
2018-06-05T03:33:44.090Z,24.30
2018-06-05T03:36:12.627Z,24.30
2018-06-05T03:38:41.238Z,24.30
2018-06-05T03:41:09.940Z,24.30
2018-06-05T03:43:38.524Z,24.30
2018-06-05T03:46:07.258Z,24.30
2018-06-05T03:48:36.846Z,24.30
2018-06-05T03:51:05.830Z,24.30
2018-06-05T03:53:34.427Z,24.30
2018-06-05T03:56:04.210Z,24.30
2018-06-05T03:58:32.758Z,24.30
2018-06-05T04:01:02.402Z,24.20
2018-06-05T04:03:31.054Z,24.20
2018-06-05T04:05:59.611Z,24.30
2018-06-05T04:08:28.471Z,24.20
2018-06-05T04:10:57.199Z,24.30
2018-06-05T04:13:25.770Z,24.30
2018-06-05T04:15:54.320Z,24.20
2018-06-05T04:18:23.115Z,24.20
2018-06-05T04:20:51.690Z,24.20
2018-06-05T04:23:20.795Z,24.20
2018-06-05T04:25:49.382Z,24.20
2018-06-05T04:28:17.907Z,24.20
2018-06-05T04:30:46.433Z,24.10
2018-06-05T04:33:14.999Z,24.20
2018-06-05T04:35:43.519Z,24.10
2018-06-05T04:38:12.133Z,24.10
2018-06-05T04:40:40.703Z,24.10
2018-06-05T04:43:09.268Z,24.10
2018-06-05T04:48:05.991Z,24.10
2018-06-05T04:50:34.611Z,24.10
2018-06-05T04:55:31.776Z,24.10
2018-06-05T05:00:28.566Z,24.10
2018-06-05T05:02:57.139Z,24.10
2018-06-05T05:05:25.712Z,24.00
2018-06-05T05:07:54.242Z,24.00
2018-06-05T05:10:22.852Z,24.00
2018-06-05T05:12:51.434Z,24.00
2018-06-05T05:17:48.512Z,24.00
2018-06-05T05:20:17.178Z,24.00
2018-06-05T05:25:15.143Z,24.00
2018-06-05T05:27:43.716Z,24.00
2018-06-05T05:30:12.227Z,24.00
2018-06-05T05:35:09.037Z,24.00
2018-06-05T05:37:37.735Z,24.00
2018-06-05T05:40:06.295Z,23.90
2018-06-05T05:42:35.496Z,24.00
2018-06-05T05:45:05.501Z,24.00
2018-06-05T05:47:34.073Z,24.00
2018-06-05T05:50:03.851Z,24.00
2018-06-05T05:52:32.400Z,24.00
2018-06-05T05:55:00.978Z,24.00
2018-06-05T05:57:29.610Z,24.10
2018-06-05T05:59:58.947Z,24.10
2018-06-05T06:02:28.268Z,24.10
2018-06-05T06:04:58.902Z,24.10
2018-06-05T06:07:28.552Z,24.10
2018-06-05T06:09:57.864Z,24.20
2018-06-05T06:12:28.226Z,24.20
2018-06-05T06:14:57.765Z,24.20
2018-06-05T06:17:27.336Z,24.20
2018-06-05T06:19:56.697Z,24.20
2018-06-05T06:22:26.001Z,24.30
2018-06-05T06:24:55.711Z,24.30
2018-06-05T06:27:25.144Z,24.30
2018-06-05T06:29:54.881Z,24.30
2018-06-05T06:32:24.255Z,24.30
2018-06-05T06:34:53.774Z,24.30
2018-06-05T06:37:23.149Z,24.40
2018-06-05T06:39:52.816Z,24.30
2018-06-05T06:42:22.408Z,24.40
2018-06-05T06:44:51.819Z,24.40
2018-06-05T06:47:21.422Z,24.40
2018-06-05T06:49:50.077Z,24.40
2018-06-05T06:54:48.632Z,24.50
2018-06-05T06:57:17.235Z,24.50
2018-06-05T06:59:45.892Z,24.50
2018-06-05T07:02:14.440Z,24.50
2018-06-05T07:04:43.003Z,24.50
2018-06-05T07:07:11.691Z,24.60
2018-06-05T07:09:40.275Z,24.60
2018-06-05T07:12:08.990Z,24.60
2018-06-05T07:14:37.539Z,24.60
2018-06-05T07:17:06.111Z,24.60
2018-06-05T07:19:34.775Z,24.60
2018-06-05T07:22:03.333Z,24.60
2018-06-05T07:24:31.969Z,24.60
2018-06-05T07:27:00.564Z,24.60
2018-06-05T07:29:29.095Z,24.70
2018-06-05T07:31:57.759Z,24.70
2018-06-05T07:34:26.300Z,24.70
2018-06-05T07:36:54.897Z,24.70
2018-06-05T07:39:23.507Z,24.70
2018-06-05T07:41:52.107Z,24.70
2018-06-05T07:44:20.714Z,24.70
2018-06-05T07:46:49.287Z,24.70
2018-06-05T07:49:18.846Z,24.80
2018-06-05T07:51:47.390Z,24.80
2018-06-05T07:54:15.936Z,24.80
2018-06-05T07:56:44.495Z,24.80
2018-06-05T07:59:13.082Z,24.80
2018-06-05T08:01:41.622Z,24.80
2018-06-05T08:04:10.198Z,24.80
2018-06-05T08:06:38.742Z,24.80
2018-06-05T08:09:09.080Z,24.80
2018-06-05T08:11:37.921Z,24.80
2018-06-05T08:14:06.476Z,24.80
2018-06-05T08:16:36.159Z,24.80
2018-06-05T08:19:04.842Z,24.80
2018-06-05T08:21:34.447Z,24.80
2018-06-05T08:24:03.023Z,24.90
2018-06-05T08:26:51.904Z,24.90
2018-06-05T08:29:21.106Z,24.90
2018-06-05T08:31:49.686Z,24.90
2018-06-05T08:34:18.270Z,24.90
2018-06-05T08:36:46.878Z,24.90
2018-06-05T08:39:15.456Z,24.90
2018-06-05T08:41:44.051Z,24.90
2018-06-05T08:44:12.667Z,24.90
2018-06-05T08:46:41.237Z,24.90
2018-06-05T08:49:09.838Z,24.90
2018-06-05T08:51:38.487Z,24.90
2018-06-05T08:56:36.328Z,24.90
2018-06-05T08:59:05.021Z,24.90
2018-06-05T09:01:33.681Z,24.90
2018-06-05T09:04:02.251Z,24.90
2018-06-05T09:06:30.831Z,25.00
2018-06-05T09:08:59.371Z,25.00
2018-06-05T09:11:27.934Z,25.00
2018-06-05T09:13:56.598Z,25.00
2018-06-05T09:16:25.171Z,25.00
2018-06-05T09:18:53.738Z,25.00
2018-06-05T09:21:22.320Z,25.00
2018-06-05T09:23:50.867Z,25.00
2018-06-05T09:26:19.475Z,25.00
2018-06-05T09:28:48.108Z,25.00
2018-06-05T09:31:16.685Z,25.00
2018-06-05T09:33:45.229Z,25.00
2018-06-05T09:36:13.759Z,25.00
2018-06-05T09:38:42.363Z,25.00
2018-06-05T09:43:39.191Z,25.00
2018-06-05T09:46:07.787Z,25.00
2018-06-05T09:51:05.608Z,25.00
2018-06-05T09:53:34.267Z,25.00
2018-06-05T09:58:31.108Z,25.00
2018-06-05T10:00:59.651Z,25.00
2018-06-05T10:03:28.225Z,25.00
2018-06-05T10:05:56.750Z,25.00
2018-06-05T10:08:25.314Z,25.00
2018-06-05T10:10:53.833Z,25.00
2018-06-05T10:13:23.435Z,25.10
2018-06-05T10:18:20.190Z,25.00
2018-06-05T10:23:16.912Z,25.10
2018-06-05T10:25:45.470Z,25.10
2018-06-05T10:28:14.047Z,25.10
2018-06-05T10:30:42.610Z,25.10
2018-06-05T10:33:11.152Z,25.10
2018-06-05T10:35:39.703Z,25.10
2018-06-05T10:38:08.247Z,25.10
2018-06-05T10:40:36.794Z,25.10
2018-06-05T10:43:05.430Z,25.10
2018-06-05T10:45:34.213Z,25.10
2018-06-05T10:48:02.887Z,25.10
2018-06-05T10:50:31.482Z,25.10
2018-06-05T10:53:01.140Z,25.10
2018-06-05T10:55:29.682Z,25.10
2018-06-05T10:57:58.263Z,25.10
2018-06-05T11:00:26.849Z,25.10
2018-06-05T11:02:55.443Z,25.10
2018-06-05T11:05:24.003Z,25.10
2018-06-05T11:07:52.645Z,25.10
2018-06-05T11:10:21.228Z,25.10
2018-06-05T11:15:18.139Z,25.10
2018-06-05T11:17:46.674Z,25.10
2018-06-05T11:20:16.251Z,25.10
2018-06-05T11:22:44.851Z,25.10
2018-06-05T11:27:42.652Z,25.10
2018-06-05T11:30:11.211Z,25.10
2018-06-05T11:32:39.880Z,25.10
2018-06-05T11:35:08.409Z,25.10
2018-06-05T11:37:37.007Z,25.10
2018-06-05T11:40:05.629Z,25.20
2018-06-05T11:42:34.230Z,25.10
2018-06-05T11:52:27.515Z,25.20
2018-06-05T11:54:56.093Z,25.10
2018-06-05T11:57:25.643Z,25.20
2018-06-05T11:59:54.196Z,25.20
2018-06-05T12:02:22.775Z,25.20
2018-06-05T12:04:51.399Z,25.20
2018-06-05T12:07:19.955Z,25.20
2018-06-05T12:12:16.841Z,25.20
2018-06-05T12:14:45.374Z,25.20
2018-06-05T12:17:13.962Z,25.20
2018-06-05T12:19:42.511Z,25.20
2018-06-05T12:22:11.100Z,25.20
2018-06-05T12:24:39.635Z,25.20
2018-06-05T12:27:08.200Z,25.20
2018-06-05T12:29:36.828Z,25.20
2018-06-05T12:32:05.614Z,25.20
2018-06-05T12:34:34.150Z,25.20
2018-06-05T12:39:31.043Z,25.20
2018-06-05T12:42:00.635Z,25.20
2018-06-05T12:44:29.207Z,25.20
2018-06-05T12:46:57.833Z,25.20
2018-06-05T12:49:26.418Z,25.30
2018-06-05T12:51:54.994Z,25.30
2018-06-05T12:54:23.605Z,25.30
2018-06-05T12:56:52.137Z,25.30
2018-06-05T12:59:20.744Z,25.30
2018-06-05T13:01:49.275Z,25.30
2018-06-05T13:06:47.070Z,25.30
2018-06-05T13:09:15.656Z,25.20
2018-06-05T13:11:44.248Z,25.30
2018-06-05T13:14:12.791Z,25.30
2018-06-05T13:16:41.510Z,25.30
2018-06-05T13:19:10.094Z,25.30
2018-06-05T13:21:38.618Z,25.30
2018-06-05T13:24:07.230Z,25.30
2018-06-05T13:26:35.792Z,25.30
2018-06-05T13:29:04.398Z,25.30
2018-06-05T13:31:34.052Z,25.30
2018-06-05T13:34:02.654Z,25.30
2018-06-05T13:36:31.270Z,25.30
2018-06-05T13:38:59.812Z,25.30
2018-06-05T13:41:28.355Z,25.30
2018-06-05T13:43:56.900Z,25.30
2018-06-05T13:46:25.514Z,25.30
2018-06-05T13:48:54.085Z,25.30
2018-06-05T13:51:22.691Z,25.30
2018-06-05T13:53:52.247Z,25.30
2018-06-05T13:56:20.803Z,25.30
2018-06-05T13:58:49.343Z,25.30
2018-06-05T14:01:18.923Z,25.30
2018-06-05T14:03:47.499Z,25.30
2018-06-05T14:06:16.012Z,25.30
2018-06-05T14:08:44.575Z,25.30
2018-06-05T14:13:42.162Z,25.30
2018-06-05T14:16:10.682Z,25.30
2018-06-05T14:18:39.207Z,25.30
2018-06-05T14:23:35.990Z,25.40
2018-06-05T14:26:04.681Z,25.40
2018-06-05T14:28:33.238Z,25.40
2018-06-05T14:31:01.807Z,25.40
2018-06-05T14:33:30.341Z,25.40
2018-06-05T14:35:58.883Z,25.30
2018-06-05T14:38:27.419Z,25.40
2018-06-05T14:40:56.004Z,25.40
2018-06-05T14:43:24.552Z,25.40
2018-06-05T14:45:59.454Z,25.40
2018-06-05T14:48:28.027Z,25.40
2018-06-05T14:53:24.821Z,25.40
2018-06-05T14:55:53.499Z,25.40
2018-06-05T14:58:22.044Z,25.40
2018-06-05T15:00:50.709Z,25.40
2018-06-05T15:03:19.284Z,25.40
2018-06-05T15:05:47.859Z,25.40
2018-06-05T15:08:16.495Z,25.40
2018-06-05T15:10:45.076Z,25.40
2018-06-05T15:13:13.620Z,25.40
2018-06-05T15:15:42.170Z,25.40
2018-06-05T15:18:10.726Z,25.40
2018-06-05T15:20:39.317Z,25.40
2018-06-05T15:23:08.131Z,25.40
2018-06-05T15:25:36.711Z,25.40
2018-06-05T15:28:05.277Z,25.40
2018-06-05T15:30:33.822Z,25.50
2018-06-05T15:35:30.631Z,25.50
2018-06-05T15:37:59.185Z,25.50
2018-06-05T15:40:27.796Z,25.50
2018-06-05T15:42:56.323Z,25.50
2018-06-05T15:47:54.107Z,25.50
2018-06-05T15:50:22.697Z,25.50
2018-06-05T15:52:51.279Z,25.50
2018-06-05T15:55:19.828Z,25.50
2018-06-05T15:57:48.420Z,25.50
2018-06-05T16:00:17.020Z,25.50
2018-06-05T16:02:45.599Z,25.50
2018-06-05T16:05:20.691Z,25.50
2018-06-05T16:07:52.092Z,25.50
2018-06-05T16:10:21.731Z,25.50
2018-06-05T16:12:50.321Z,25.50
2018-06-05T16:15:18.904Z,25.50
2018-06-05T16:17:47.569Z,25.50
2018-06-05T16:20:16.347Z,25.50
2018-06-05T16:22:45.048Z,25.50
2018-06-05T16:25:13.627Z,25.50
2018-06-05T16:27:42.216Z,25.50
2018-06-05T16:30:10.882Z,25.50
2018-06-05T16:32:39.579Z,25.50
2018-06-05T16:35:08.118Z,25.50
2018-06-05T16:40:05.028Z,25.50
2018-06-05T16:42:33.693Z,25.50
2018-06-05T16:45:02.313Z,25.50
2018-06-05T16:47:30.887Z,25.50
2018-06-05T16:49:59.535Z,25.50
2018-06-05T16:52:28.141Z,25.50
2018-06-05T16:54:56.775Z,25.50
2018-06-05T16:57:25.332Z,25.50
2018-06-05T16:59:53.927Z,25.50
2018-06-05T17:02:22.451Z,25.50
2018-06-05T17:04:52.118Z,25.50
2018-06-05T17:07:20.695Z,25.50
2018-06-05T17:09:49.242Z,25.50
2018-06-05T17:12:17.880Z,25.50
2018-06-05T17:14:46.491Z,25.50
2018-06-05T17:17:16.196Z,25.50
2018-06-05T17:19:44.879Z,25.50
2018-06-05T17:22:13.575Z,25.50
2018-06-05T17:24:42.149Z,25.50
2018-06-05T17:27:10.817Z,25.50
2018-06-05T17:29:39.359Z,25.50
2018-06-05T17:32:07.940Z,25.50
2018-06-05T17:34:36.570Z,25.50
2018-06-05T17:37:05.151Z,25.50
2018-06-05T17:39:33.752Z,25.50
2018-06-05T17:42:02.336Z,25.50
2018-06-05T17:44:31.002Z,25.60
2018-06-05T17:47:00.604Z,25.50
2018-06-05T17:49:29.218Z,25.50
2018-06-05T17:51:57.804Z,25.60
2018-06-05T17:54:27.433Z,25.60
2018-06-05T17:56:55.975Z,25.60
2018-06-05T17:59:24.575Z,25.60
2018-06-05T18:01:53.117Z,25.60
2018-06-05T18:04:21.670Z,25.60
2018-06-05T18:06:50.271Z,25.60
2018-06-05T18:11:47.060Z,25.60
2018-06-05T18:14:15.642Z,25.60
2018-06-05T18:16:44.176Z,25.60
2018-06-05T18:19:12.771Z,25.60
2018-06-05T18:24:10.756Z,25.60
2018-06-05T18:26:39.345Z,25.60
2018-06-05T18:29:08.938Z,25.60
2018-06-05T18:34:05.745Z,25.70
2018-06-05T18:36:34.378Z,25.70
2018-06-05T18:39:03.100Z,25.70
2018-06-05T18:41:32.706Z,25.70
2018-06-05T18:44:01.252Z,25.70
2018-06-05T18:48:58.211Z,25.70
2018-06-05T18:51:26.796Z,25.70
2018-06-05T18:53:55.516Z,25.70
2018-06-05T18:56:25.142Z,25.70
2018-06-05T18:58:55.074Z,25.70
2018-06-05T19:01:24.604Z,25.70
2018-06-05T19:03:54.282Z,25.70
2018-06-05T19:06:23.485Z,25.80
2018-06-05T19:08:52.069Z,25.80
2018-06-05T19:11:21.699Z,25.80
2018-06-05T19:13:51.267Z,25.80
2018-06-05T19:16:19.853Z,25.80
2018-06-05T19:18:48.406Z,25.80
2018-06-05T19:21:16.991Z,25.80
2018-06-05T19:23:45.581Z,25.90
2018-06-05T19:26:14.150Z,25.90
2018-06-05T19:28:42.755Z,25.90
2018-06-05T19:31:11.328Z,25.90
2018-06-05T19:33:40.924Z,25.90
2018-06-05T19:36:10.497Z,25.90
2018-06-05T19:38:39.219Z,26.00
2018-06-05T19:41:07.843Z,26.00
2018-06-05T19:43:36.383Z,26.00
2018-06-05T19:46:04.963Z,26.00
2018-06-05T19:48:35.869Z,26.00
2018-06-05T19:51:05.446Z,26.00
2018-06-05T19:53:34.058Z,26.00
2018-06-05T19:56:02.712Z,26.00
2018-06-05T20:00:59.487Z,26.00
2018-06-05T20:03:28.048Z,26.10
2018-06-05T20:05:56.611Z,26.00
2018-06-05T20:08:26.231Z,26.10
2018-06-05T20:10:54.875Z,26.00
2018-06-05T20:13:23.588Z,26.00
2018-06-05T20:15:52.170Z,26.00
2018-06-05T20:18:20.754Z,26.10
2018-06-05T20:20:49.371Z,26.10
2018-06-05T20:23:17.879Z,26.10
2018-06-05T20:25:46.552Z,26.10
2018-06-05T20:28:15.104Z,26.10
2018-06-05T20:30:43.850Z,26.10
2018-06-05T20:33:12.534Z,26.10
2018-06-05T20:35:41.167Z,26.10
2018-06-05T20:38:09.753Z,26.10
2018-06-05T20:43:07.516Z,26.10
2018-06-05T20:45:37.078Z,26.10
2018-06-05T20:48:05.852Z,26.10
2018-06-05T20:50:34.453Z,26.10
2018-06-05T20:53:03.054Z,26.10
2018-06-05T20:55:31.591Z,26.10
2018-06-05T20:58:00.499Z,26.10
2018-06-05T21:00:30.184Z,26.10
2018-06-05T21:02:58.709Z,26.10
2018-06-05T21:05:27.304Z,26.10
2018-06-05T21:07:55.888Z,26.20
2018-06-05T21:10:24.590Z,26.20
2018-06-05T21:12:53.154Z,26.10
2018-06-05T21:15:21.764Z,26.10
2018-06-05T21:17:50.401Z,26.20
2018-06-05T21:20:18.974Z,26.20
2018-06-05T21:22:47.534Z,26.20
2018-06-05T21:25:17.083Z,26.20
2018-06-05T21:27:45.668Z,26.20
2018-06-05T21:30:14.379Z,26.20
2018-06-05T21:32:42.928Z,26.20
2018-06-05T21:35:11.556Z,26.20
2018-06-05T21:37:40.129Z,26.20
2018-06-05T21:40:08.688Z,26.20
2018-06-05T21:42:37.254Z,26.20
2018-06-05T21:45:06.125Z,26.20
2018-06-05T21:47:34.663Z,26.20
2018-06-05T21:52:31.554Z,26.20
2018-06-05T21:55:00.108Z,26.20
2018-06-05T21:57:28.700Z,26.20
2018-06-05T21:59:57.737Z,26.20
2018-06-05T22:02:27.250Z,26.30
2018-06-05T22:04:56.245Z,26.30
2018-06-05T22:07:25.727Z,26.30
2018-06-05T22:09:55.655Z,26.30
2018-06-05T22:12:24.411Z,26.30
2018-06-05T22:14:53.207Z,26.30
2018-06-05T22:17:21.831Z,26.30
2018-06-05T22:19:50.735Z,26.30
2018-06-05T22:22:19.986Z,26.30
2018-06-05T22:24:49.351Z,26.30
2018-06-05T22:27:19.044Z,26.30
2018-06-05T22:29:48.866Z,26.30
2018-06-05T22:32:18.633Z,26.30
2018-06-05T22:34:47.602Z,26.30
2018-06-05T22:37:17.156Z,26.30
2018-06-05T22:39:45.748Z,26.30
2018-06-05T22:42:16.380Z,26.30
2018-06-05T22:44:45.232Z,26.30
2018-06-05T22:47:14.890Z,26.30
2018-06-05T22:49:44.307Z,26.30
2018-06-05T22:52:13.914Z,26.30
2018-06-05T22:54:43.515Z,26.30
2018-06-05T22:57:12.071Z,26.30
2018-06-05T22:59:40.619Z,26.30
2018-06-05T23:02:09.367Z,26.30
2018-06-05T23:04:37.956Z,26.30
2018-06-05T23:07:07.619Z,26.30
2018-06-05T23:09:37.287Z,26.30
2018-06-05T23:12:05.863Z,26.30
2018-06-05T23:14:34.419Z,26.20
2018-06-05T23:17:02.958Z,26.20
2018-06-05T23:19:32.500Z,26.20
2018-06-05T23:22:01.034Z,26.20
2018-06-05T23:24:29.623Z,26.20
2018-06-05T23:26:58.156Z,26.20
2018-06-05T23:29:27.776Z,26.20
2018-06-05T23:31:56.386Z,26.20
2018-06-05T23:34:24.967Z,26.20
2018-06-05T23:36:53.627Z,26.20
2018-06-05T23:39:22.155Z,26.10
2018-06-05T23:41:50.738Z,26.10
2018-06-05T23:44:19.252Z,26.10
2018-06-05T23:46:47.812Z,26.10
2018-06-05T23:49:16.378Z,26.10
2018-06-05T23:51:44.923Z,26.10
2018-06-05T23:54:13.528Z,26.00
2018-06-05T23:56:42.051Z,26.00
2018-06-05T23:59:10.622Z,26.00
